sensor_id;sensor_type;location;lat;lon;timestamp;pressure;altitude;pressure_sealevel;temperature;humidity
5952;BME280;3001;42.622;23.194;2023-04-30T00:00:02;91038.53;;;11.71;82.01
5952;BME280;3001;42.622;23.194;2023-04-30T00:02:32;91035.53;;;11.52;83.04
5952;BME280;3001;42.622;23.194;2023-04-30T00:04:59;91043.94;;;11.49;83.45
5952;BME280;3001;42.622;23.194;2023-04-30T00:07:25;91042.09;;;11.58;82.97
5952;BME280;3001;42.622;23.194;2023-04-30T00:09:52;91043.31;;;11.52;83.88
5952;BME280;3001;42.622;23.194;2023-04-30T00:12:18;91047.16;;;11.54;82.86
5952;BME280;3001;42.622;23.194;2023-04-30T00:14:47;91047.75;;;11.51;82.69
5952;BME280;3001;42.622;23.194;2023-04-30T00:17:13;91042.91;;;11.41;83.07
5952;BME280;3001;42.622;23.194;2023-04-30T00:19:40;91043.81;;;11.37;83.39
5952;BME280;3001;42.622;23.194;2023-04-30T00:22:07;91046.00;;;11.26;83.78
5952;BME280;3001;42.622;23.194;2023-04-30T00:24:33;91040.38;;;11.07;84.08
5952;BME280;3001;42.622;23.194;2023-04-30T00:27:00;91038.25;;;11.01;85.35
5952;BME280;3001;42.622;23.194;2023-04-30T00:29:27;91036.44;;;10.93;85.53
5952;BME280;3001;42.622;23.194;2023-04-30T00:31:55;91042.97;;;10.99;85.08
5952;BME280;3001;42.622;23.194;2023-04-30T00:34:21;91037.50;;;11.00;84.49
5952;BME280;3001;42.622;23.194;2023-04-30T00:36:48;91039.63;;;11.07;84.46
5952;BME280;3001;42.622;23.194;2023-04-30T00:39:15;91045.44;;;11.04;85.13
5952;BME280;3001;42.622;23.194;2023-04-30T00:41:42;91039.19;;;10.88;84.78
5952;BME280;3001;42.622;23.194;2023-04-30T00:44:09;91034.16;;;10.83;85.80
5952;BME280;3001;42.622;23.194;2023-04-30T00:46:35;91037.66;;;10.78;85.14
5952;BME280;3001;42.622;23.194;2023-04-30T00:49:03;91034.28;;;10.69;85.19
5952;BME280;3001;42.622;23.194;2023-04-30T00:51:31;91042.09;;;10.69;84.85
5952;BME280;3001;42.622;23.194;2023-04-30T00:53:59;91045.28;;;10.83;84.39
5952;BME280;3001;42.622;23.194;2023-04-30T00:56:27;91035.97;;;10.74;84.69
5952;BME280;3001;42.622;23.194;2023-04-30T00:58:55;91035.53;;;10.72;84.86
5952;BME280;3001;42.622;23.194;2023-04-30T01:01:22;91028.34;;;10.69;85.40
5952;BME280;3001;42.622;23.194;2023-04-30T01:03:49;91034.28;;;10.69;84.94
5952;BME280;3001;42.622;23.194;2023-04-30T01:06:17;91039.03;;;10.67;85.05
5952;BME280;3001;42.622;23.194;2023-04-30T01:08:44;91032.75;;;10.77;85.03
5952;BME280;3001;42.622;23.194;2023-04-30T01:11:16;91032.59;;;10.82;83.99
5952;BME280;3001;42.622;23.194;2023-04-30T01:14:04;91032.00;;;10.85;83.71
5952;BME280;3001;42.622;23.194;2023-04-30T01:16:37;91032.13;;;10.88;82.92
5952;BME280;3001;42.622;23.194;2023-04-30T01:19:09;91035.97;;;10.65;83.90
5952;BME280;3001;42.622;23.194;2023-04-30T01:21:42;91032.19;;;10.63;83.88
5952;BME280;3001;42.622;23.194;2023-04-30T01:24:30;91033.09;;;10.58;84.09
5952;BME280;3001;42.622;23.194;2023-04-30T01:27:14;91024.69;;;10.53;84.37
5952;BME280;3001;42.622;23.194;2023-04-30T01:29:51;91028.19;;;10.57;84.79
5952;BME280;3001;42.622;23.194;2023-04-30T01:32:19;91020.41;;;10.65;84.39
5952;BME280;3001;42.622;23.194;2023-04-30T01:34:45;91026.03;;;10.67;84.61
5952;BME280;3001;42.622;23.194;2023-04-30T01:37:19;91018.56;;;10.74;84.40
5952;BME280;3001;42.622;23.194;2023-04-30T01:39:57;91021.16;;;10.83;84.16
5952;BME280;3001;42.622;23.194;2023-04-30T01:42:34;91030.94;;;10.86;85.12
5952;BME280;3001;42.622;23.194;2023-04-30T01:45:23;91029.53;;;10.97;84.07
5952;BME280;3001;42.622;23.194;2023-04-30T01:48:11;91025.09;;;11.06;83.33
5952;BME280;3001;42.622;23.194;2023-04-30T01:50:47;91022.00;;;11.12;82.38
5952;BME280;3001;42.622;23.194;2023-04-30T01:53:18;91026.19;;;11.05;83.69
5952;BME280;3001;42.622;23.194;2023-04-30T01:55:50;91028.00;;;11.04;83.93
5952;BME280;3001;42.622;23.194;2023-04-30T01:58:19;91025.41;;;10.96;82.87
5952;BME280;3001;42.622;23.194;2023-04-30T02:00:49;91024.16;;;11.02;82.29
5952;BME280;3001;42.622;23.194;2023-04-30T02:03:16;91028.28;;;11.11;82.28
5952;BME280;3001;42.622;23.194;2023-04-30T02:05:43;91023.88;;;11.03;84.33
5952;BME280;3001;42.622;23.194;2023-04-30T02:08:09;91017.78;;;10.99;82.89
5952;BME280;3001;42.622;23.194;2023-04-30T02:10:36;91009.53;;;10.97;83.92
5952;BME280;3001;42.622;23.194;2023-04-30T02:13:03;91020.19;;;11.13;83.06
5952;BME280;3001;42.622;23.194;2023-04-30T02:15:29;91013.00;;;11.10;84.17
5952;BME280;3001;42.622;23.194;2023-04-30T02:17:57;91021.25;;;11.12;83.50
5952;BME280;3001;42.622;23.194;2023-04-30T02:20:24;91017.41;;;11.18;84.33
5952;BME280;3001;42.622;23.194;2023-04-30T02:22:52;91015.25;;;11.28;83.48
5952;BME280;3001;42.622;23.194;2023-04-30T02:25:18;91019.53;;;11.33;83.08
5952;BME280;3001;42.622;23.194;2023-04-30T02:27:45;91010.81;;;11.29;83.95
5952;BME280;3001;42.622;23.194;2023-04-30T02:30:12;91005.28;;;11.39;84.14
5952;BME280;3001;42.622;23.194;2023-04-30T02:32:38;91007.53;;;11.57;84.10
5952;BME280;3001;42.622;23.194;2023-04-30T02:35:07;91009.63;;;11.64;84.58
5952;BME280;3001;42.622;23.194;2023-04-30T02:37:34;91009.34;;;11.65;85.04
5952;BME280;3001;42.622;23.194;2023-04-30T02:40:00;91009.81;;;11.59;85.21
5952;BME280;3001;42.622;23.194;2023-04-30T02:42:27;91007.34;;;11.62;84.90
5952;BME280;3001;42.622;23.194;2023-04-30T02:44:54;91009.16;;;11.70;84.41
5952;BME280;3001;42.622;23.194;2023-04-30T02:47:20;91013.38;;;11.83;82.41
5952;BME280;3001;42.622;23.194;2023-04-30T02:49:47;91015.97;;;11.83;83.33
5952;BME280;3001;42.622;23.194;2023-04-30T02:52:15;91017.38;;;11.81;83.02
5952;BME280;3001;42.622;23.194;2023-04-30T02:54:42;91010.41;;;11.93;82.75
5952;BME280;3001;42.622;23.194;2023-04-30T02:57:09;91009.28;;;12.02;81.68
5952;BME280;3001;42.622;23.194;2023-04-30T02:59:36;91016.78;;;12.04;82.67
5952;BME280;3001;42.622;23.194;2023-04-30T03:02:03;91015.81;;;12.17;83.51
5952;BME280;3001;42.622;23.194;2023-04-30T03:04:30;91022.69;;;12.13;80.88
5952;BME280;3001;42.622;23.194;2023-04-30T03:06:56;91009.88;;;12.08;81.22
5952;BME280;3001;42.622;23.194;2023-04-30T03:09:26;91018.31;;;12.05;82.56
5952;BME280;3001;42.622;23.194;2023-04-30T03:11:52;91021.94;;;12.12;80.33
5952;BME280;3001;42.622;23.194;2023-04-30T03:14:19;91023.53;;;12.05;81.06
5952;BME280;3001;42.622;23.194;2023-04-30T03:16:46;91018.50;;;12.00;82.37
5952;BME280;3001;42.622;23.194;2023-04-30T03:19:12;91019.22;;;12.09;82.70
5952;BME280;3001;42.622;23.194;2023-04-30T03:21:39;91024.75;;;12.07;83.58
5952;BME280;3001;42.622;23.194;2023-04-30T03:24:06;91023.91;;;11.95;84.78
5952;BME280;3001;42.622;23.194;2023-04-30T03:26:34;91026.13;;;12.05;83.14
5952;BME280;3001;42.622;23.194;2023-04-30T03:29:00;91026.34;;;12.20;82.55
5952;BME280;3001;42.622;23.194;2023-04-30T03:31:27;91021.22;;;12.32;82.75
5952;BME280;3001;42.622;23.194;2023-04-30T03:33:54;91028.13;;;12.28;84.09
5952;BME280;3001;42.622;23.194;2023-04-30T03:36:20;91032.91;;;12.26;84.84
5952;BME280;3001;42.622;23.194;2023-04-30T03:38:47;91040.63;;;12.35;84.97
5952;BME280;3001;42.622;23.194;2023-04-30T03:41:14;91035.81;;;12.45;83.11
5952;BME280;3001;42.622;23.194;2023-04-30T03:43:42;91038.56;;;12.49;83.22
5952;BME280;3001;42.622;23.194;2023-04-30T03:46:09;91042.63;;;12.58;83.47
5952;BME280;3001;42.622;23.194;2023-04-30T03:48:35;91042.88;;;12.65;83.55
5952;BME280;3001;42.622;23.194;2023-04-30T03:51:02;91043.16;;;12.72;83.02
5952;BME280;3001;42.622;23.194;2023-04-30T03:53:29;91051.34;;;12.62;83.51
5952;BME280;3001;42.622;23.194;2023-04-30T03:55:56;91052.84;;;12.63;84.17
5952;BME280;3001;42.622;23.194;2023-04-30T03:58:24;91044.88;;;12.68;83.37
5952;BME280;3001;42.622;23.194;2023-04-30T04:00:52;91060.44;;;12.77;80.43
5952;BME280;3001;42.622;23.194;2023-04-30T04:03:18;91048.38;;;12.72;81.65
5952;BME280;3001;42.622;23.194;2023-04-30T04:05:46;91058.28;;;12.79;81.38
5952;BME280;3001;42.622;23.194;2023-04-30T04:08:13;91052.84;;;12.92;80.45
5952;BME280;3001;42.622;23.194;2023-04-30T04:10:39;91059.81;;;13.00;79.61
5952;BME280;3001;42.622;23.194;2023-04-30T04:13:06;91059.59;;;13.05;79.69
5952;BME280;3001;42.622;23.194;2023-04-30T04:15:33;91057.56;;;13.11;79.80
5952;BME280;3001;42.622;23.194;2023-04-30T04:18:01;91060.19;;;13.11;80.46
5952;BME280;3001;42.622;23.194;2023-04-30T04:20:28;91070.09;;;13.17;81.38
5952;BME280;3001;42.622;23.194;2023-04-30T04:22:54;91055.09;;;13.14;80.89
5952;BME280;3001;42.622;23.194;2023-04-30T04:25:21;91061.13;;;13.06;81.55
5952;BME280;3001;42.622;23.194;2023-04-30T04:27:49;91065.22;;;12.95;82.77
5952;BME280;3001;42.622;23.194;2023-04-30T04:30:16;91068.34;;;13.09;81.86
5952;BME280;3001;42.622;23.194;2023-04-30T04:32:43;91060.97;;;13.11;82.79
5952;BME280;3001;42.622;23.194;2023-04-30T04:35:15;91066.28;;;13.15;84.24
5952;BME280;3001;42.622;23.194;2023-04-30T04:37:42;91069.59;;;13.24;82.53
5952;BME280;3001;42.622;23.194;2023-04-30T04:40:09;91073.84;;;13.28;83.22
5952;BME280;3001;42.622;23.194;2023-04-30T04:42:37;91072.88;;;13.33;83.82
5952;BME280;3001;42.622;23.194;2023-04-30T04:45:04;91082.91;;;13.43;84.03
5952;BME280;3001;42.622;23.194;2023-04-30T04:47:32;91077.41;;;13.56;83.91
5952;BME280;3001;42.622;23.194;2023-04-30T04:49:58;91086.78;;;13.69;81.04
5952;BME280;3001;42.622;23.194;2023-04-30T04:52:26;91090.50;;;13.80;81.00
5952;BME280;3001;42.622;23.194;2023-04-30T04:54:53;91092.75;;;13.70;81.39
5952;BME280;3001;42.622;23.194;2023-04-30T04:57:21;91092.97;;;13.77;81.91
5952;BME280;3001;42.622;23.194;2023-04-30T04:59:48;91093.97;;;13.84;82.75
5952;BME280;3001;42.622;23.194;2023-04-30T05:02:14;91096.50;;;13.92;82.41
5952;BME280;3001;42.622;23.194;2023-04-30T05:04:41;91092.38;;;13.91;83.35
5952;BME280;3001;42.622;23.194;2023-04-30T05:07:08;91090.31;;;13.97;79.17
5952;BME280;3001;42.622;23.194;2023-04-30T05:09:36;91089.91;;;14.19;80.34
5952;BME280;3001;42.622;23.194;2023-04-30T05:12:03;91085.56;;;14.23;79.18
5952;BME280;3001;42.622;23.194;2023-04-30T05:14:30;91093.19;;;14.28;79.38
5952;BME280;3001;42.622;23.194;2023-04-30T05:16:56;91100.59;;;14.26;79.39
5952;BME280;3001;42.622;23.194;2023-04-30T05:19:23;91100.16;;;14.36;80.89
5952;BME280;3001;42.622;23.194;2023-04-30T05:21:50;91099.06;;;14.49;79.47
5952;BME280;3001;42.622;23.194;2023-04-30T05:24:16;91092.19;;;14.56;80.29
5952;BME280;3001;42.622;23.194;2023-04-30T05:26:44;91092.66;;;14.46;81.02
5952;BME280;3001;42.622;23.194;2023-04-30T05:29:11;91100.16;;;14.48;81.16
5952;BME280;3001;42.622;23.194;2023-04-30T05:31:38;91097.22;;;14.61;81.14
5952;BME280;3001;42.622;23.194;2023-04-30T05:34:04;91086.19;;;14.68;80.77
5952;BME280;3001;42.622;23.194;2023-04-30T05:36:31;91107.16;;;14.95;78.47
5952;BME280;3001;42.622;23.194;2023-04-30T05:38:58;91098.94;;;14.81;78.98
5952;BME280;3001;42.622;23.194;2023-04-30T05:41:24;91091.72;;;14.78;78.52
5952;BME280;3001;42.622;23.194;2023-04-30T05:43:53;91089.88;;;14.79;78.32
5952;BME280;3001;42.622;23.194;2023-04-30T05:46:19;91093.22;;;14.91;76.94
5952;BME280;3001;42.622;23.194;2023-04-30T05:48:46;91099.53;;;15.02;77.27
5952;BME280;3001;42.622;23.194;2023-04-30T05:51:13;91095.59;;;15.08;78.01
5952;BME280;3001;42.622;23.194;2023-04-30T05:53:40;91103.31;;;15.17;77.92
5952;BME280;3001;42.622;23.194;2023-04-30T05:56:07;91099.78;;;15.25;77.42
5952;BME280;3001;42.622;23.194;2023-04-30T05:58:34;91096.50;;;15.28;76.29
5952;BME280;3001;42.622;23.194;2023-04-30T06:01:02;91108.31;;;15.34;75.78
5952;BME280;3001;42.622;23.194;2023-04-30T06:03:29;91109.34;;;15.45;75.11
5952;BME280;3001;42.622;23.194;2023-04-30T06:05:56;91114.13;;;15.55;74.65
5952;BME280;3001;42.622;23.194;2023-04-30T06:08:23;91114.28;;;15.62;72.99
5952;BME280;3001;42.622;23.194;2023-04-30T06:10:50;91121.59;;;15.68;73.01
5952;BME280;3001;42.622;23.194;2023-04-30T06:13:16;91115.53;;;15.79;73.35
5952;BME280;3001;42.622;23.194;2023-04-30T06:15:43;91122.19;;;15.77;73.44
5952;BME280;3001;42.622;23.194;2023-04-30T06:18:12;91128.06;;;16.01;69.88
5952;BME280;3001;42.622;23.194;2023-04-30T06:20:39;91135.66;;;16.06;62.48
5952;BME280;3001;42.622;23.194;2023-04-30T06:23:06;91135.25;;;16.04;63.90
5952;BME280;3001;42.622;23.194;2023-04-30T06:25:33;91140.06;;;16.18;64.54
5952;BME280;3001;42.622;23.194;2023-04-30T06:27:59;91136.78;;;16.21;65.53
5952;BME280;3001;42.622;23.194;2023-04-30T06:30:26;91136.03;;;16.20;63.60
5952;BME280;3001;42.622;23.194;2023-04-30T06:32:54;91132.72;;;16.08;63.13
5952;BME280;3001;42.622;23.194;2023-04-30T06:35:22;91124.88;;;16.08;62.56
5952;BME280;3001;42.622;23.194;2023-04-30T06:37:49;91136.34;;;16.03;63.91
5952;BME280;3001;42.622;23.194;2023-04-30T06:40:16;91141.84;;;16.14;65.62
5952;BME280;3001;42.622;23.194;2023-04-30T06:42:42;91134.00;;;16.29;64.14
5952;BME280;3001;42.622;23.194;2023-04-30T06:45:10;91136.06;;;16.51;61.80
5952;BME280;3001;42.622;23.194;2023-04-30T06:47:39;91130.47;;;16.68;60.34
5952;BME280;3001;42.622;23.194;2023-04-30T06:50:07;91132.59;;;16.78;60.79
5952;BME280;3001;42.622;23.194;2023-04-30T06:52:35;91134.09;;;16.79;58.97
5952;BME280;3001;42.622;23.194;2023-04-30T06:55:02;91136.53;;;16.88;57.41
5952;BME280;3001;42.622;23.194;2023-04-30T06:57:29;91141.94;;;17.29;56.08
5952;BME280;3001;42.622;23.194;2023-04-30T06:59:56;91146.84;;;17.31;55.55
5952;BME280;3001;42.622;23.194;2023-04-30T07:02:22;91151.00;;;17.32;55.30
5952;BME280;3001;42.622;23.194;2023-04-30T07:04:49;91146.78;;;17.27;57.27
5952;BME280;3001;42.622;23.194;2023-04-30T07:07:16;91132.44;;;17.06;57.79
5952;BME280;3001;42.622;23.194;2023-04-30T07:09:44;91137.47;;;17.14;59.64
5952;BME280;3001;42.622;23.194;2023-04-30T07:12:10;91141.16;;;17.10;56.05
5952;BME280;3001;42.622;23.194;2023-04-30T07:14:37;91140.75;;;17.08;57.89
5952;BME280;3001;42.622;23.194;2023-04-30T07:17:04;91150.97;;;17.47;56.70
5952;BME280;3001;42.622;23.194;2023-04-30T07:19:31;91142.75;;;17.48;57.22
5952;BME280;3001;42.622;23.194;2023-04-30T07:21:58;91156.94;;;17.63;54.75
5952;BME280;3001;42.622;23.194;2023-04-30T07:24:24;91150.66;;;17.67;55.04
5952;BME280;3001;42.622;23.194;2023-04-30T07:26:53;91151.50;;;17.56;54.49
5952;BME280;3001;42.622;23.194;2023-04-30T07:29:20;91150.63;;;17.33;55.75
5952;BME280;3001;42.622;23.194;2023-04-30T07:31:46;91154.56;;;17.24;57.86
5952;BME280;3001;42.622;23.194;2023-04-30T07:34:13;91158.34;;;17.07;56.69
5952;BME280;3001;42.622;23.194;2023-04-30T07:36:40;91153.34;;;17.02;57.95
5952;BME280;3001;42.622;23.194;2023-04-30T07:39:06;91157.78;;;16.98;58.65
5952;BME280;3001;42.622;23.194;2023-04-30T07:41:36;91158.09;;;16.97;58.89
5952;BME280;3001;42.622;23.194;2023-04-30T07:44:04;91157.41;;;17.00;58.55
5952;BME280;3001;42.622;23.194;2023-04-30T07:46:31;91170.94;;;17.02;58.79
5952;BME280;3001;42.622;23.194;2023-04-30T07:48:57;91161.50;;;16.97;59.61
5952;BME280;3001;42.622;23.194;2023-04-30T07:51:24;91168.00;;;17.03;60.34
5952;BME280;3001;42.622;23.194;2023-04-30T07:53:51;91173.75;;;16.93;61.02
5952;BME280;3001;42.622;23.194;2023-04-30T07:56:18;91168.00;;;17.03;61.03
5952;BME280;3001;42.622;23.194;2023-04-30T07:58:45;91177.19;;;16.78;61.66
5952;BME280;3001;42.622;23.194;2023-04-30T08:01:14;91166.03;;;16.66;62.07
5952;BME280;3001;42.622;23.194;2023-04-30T08:03:40;91172.09;;;16.70;63.13
5952;BME280;3001;42.622;23.194;2023-04-30T08:06:07;91176.41;;;16.78;65.79
5952;BME280;3001;42.622;23.194;2023-04-30T08:08:34;91178.44;;;16.69;64.69
5952;BME280;3001;42.622;23.194;2023-04-30T08:11:00;91176.25;;;16.71;65.07
5952;BME280;3001;42.622;23.194;2023-04-30T08:13:27;91183.75;;;16.72;65.11
5952;BME280;3001;42.622;23.194;2023-04-30T08:15:54;91187.16;;;16.57;67.03
5952;BME280;3001;42.622;23.194;2023-04-30T08:18:22;91178.09;;;16.55;68.58
5952;BME280;3001;42.622;23.194;2023-04-30T08:20:48;91178.03;;;16.67;69.31
5952;BME280;3001;42.622;23.194;2023-04-30T08:23:15;91185.28;;;16.73;67.72
5952;BME280;3001;42.622;23.194;2023-04-30T08:25:42;91181.97;;;17.07;63.52
5952;BME280;3001;42.622;23.194;2023-04-30T08:28:08;91180.28;;;16.99;63.67
5952;BME280;3001;42.622;23.194;2023-04-30T08:30:35;91185.19;;;16.85;65.14
5952;BME280;3001;42.622;23.194;2023-04-30T08:33:02;91174.78;;;17.04;62.94
5952;BME280;3001;42.622;23.194;2023-04-30T08:35:30;91175.69;;;17.12;63.23
5952;BME280;3001;42.622;23.194;2023-04-30T08:37:56;91167.88;;;17.15;63.92
5952;BME280;3001;42.622;23.194;2023-04-30T08:40:23;91169.91;;;17.22;65.70
5952;BME280;3001;42.622;23.194;2023-04-30T08:42:55;91171.59;;;17.30;63.18
5952;BME280;3001;42.622;23.194;2023-04-30T08:45:26;91178.28;;;17.27;62.90
5952;BME280;3001;42.622;23.194;2023-04-30T08:47:54;91172.25;;;17.42;61.63
5952;BME280;3001;42.622;23.194;2023-04-30T08:50:23;91171.16;;;17.43;60.89
5952;BME280;3001;42.622;23.194;2023-04-30T08:52:51;91168.63;;;17.47;61.94
5952;BME280;3001;42.622;23.194;2023-04-30T08:55:18;91178.06;;;17.51;60.74
5952;BME280;3001;42.622;23.194;2023-04-30T08:57:45;91168.44;;;17.40;60.31
5952;BME280;3001;42.622;23.194;2023-04-30T09:00:12;91169.22;;;17.40;59.21
5952;BME280;3001;42.622;23.194;2023-04-30T09:02:40;91157.53;;;17.38;60.67
5952;BME280;3001;42.622;23.194;2023-04-30T09:05:08;91158.53;;;17.48;60.65
5952;BME280;3001;42.622;23.194;2023-04-30T09:07:37;91162.41;;;17.73;60.34
5952;BME280;3001;42.622;23.194;2023-04-30T09:10:13;91158.28;;;17.95;58.91
5952;BME280;3001;42.622;23.194;2023-04-30T09:12:40;91158.69;;;17.97;58.60
5952;BME280;3001;42.622;23.194;2023-04-30T09:15:10;91162.50;;;17.99;58.16
5952;BME280;3001;42.622;23.194;2023-04-30T09:17:38;91157.44;;;17.87;59.07
5952;BME280;3001;42.622;23.194;2023-04-30T09:20:08;91155.22;;;18.12;59.04
5952;BME280;3001;42.622;23.194;2023-04-30T09:22:36;91160.91;;;18.14;58.02
5952;BME280;3001;42.622;23.194;2023-04-30T09:25:04;91162.09;;;17.97;58.18
5952;BME280;3001;42.622;23.194;2023-04-30T09:27:33;91162.09;;;17.97;56.63
5952;BME280;3001;42.622;23.194;2023-04-30T09:30:00;91151.09;;;17.92;57.58
5952;BME280;3001;42.622;23.194;2023-04-30T09:32:27;91144.88;;;18.00;58.52
5952;BME280;3001;42.622;23.194;2023-04-30T09:34:54;91143.59;;;18.32;58.44
5952;BME280;3001;42.622;23.194;2023-04-30T09:37:21;91145.19;;;18.59;59.49
5952;BME280;3001;42.622;23.194;2023-04-30T09:39:49;91139.97;;;18.85;57.52
5952;BME280;3001;42.622;23.194;2023-04-30T09:42:16;91139.47;;;19.02;57.49
5952;BME280;3001;42.622;23.194;2023-04-30T09:44:46;91136.88;;;19.05;53.86
5952;BME280;3001;42.622;23.194;2023-04-30T09:47:14;91135.66;;;18.99;54.17
5952;BME280;3001;42.622;23.194;2023-04-30T09:49:42;91137.75;;;18.87;55.83
5952;BME280;3001;42.622;23.194;2023-04-30T09:52:09;91140.88;;;18.96;54.37
5952;BME280;3001;42.622;23.194;2023-04-30T09:54:37;91143.72;;;18.84;53.28
5952;BME280;3001;42.622;23.194;2023-04-30T09:57:04;91140.91;;;18.73;52.09
5952;BME280;3001;42.622;23.194;2023-04-30T09:59:35;91118.84;;;19.07;55.05
5952;BME280;3001;42.622;23.194;2023-04-30T10:02:06;91137.06;;;19.41;52.97
5952;BME280;3001;42.622;23.194;2023-04-30T10:04:34;91127.97;;;19.39;52.73
5952;BME280;3001;42.622;23.194;2023-04-30T10:07:05;91117.00;;;19.33;50.51
5952;BME280;3001;42.622;23.194;2023-04-30T10:09:38;91118.56;;;19.38;51.72
5952;BME280;3001;42.622;23.194;2023-04-30T10:12:12;91116.66;;;19.38;54.70
5952;BME280;3001;42.622;23.194;2023-04-30T10:14:44;91122.63;;;19.32;53.22
5952;BME280;3001;42.622;23.194;2023-04-30T10:17:15;91126.91;;;19.18;56.25
5952;BME280;3001;42.622;23.194;2023-04-30T10:19:45;91124.13;;;19.07;59.11
5952;BME280;3001;42.622;23.194;2023-04-30T10:22:13;91123.97;;;18.97;63.23
5952;BME280;3001;42.622;23.194;2023-04-30T10:24:41;91121.47;;;18.81;63.90
5952;BME280;3001;42.622;23.194;2023-04-30T10:27:09;91120.44;;;18.63;71.04
5952;BME280;3001;42.622;23.194;2023-04-30T10:29:35;91123.31;;;18.55;68.38
5952;BME280;3001;42.622;23.194;2023-04-30T10:32:03;91131.03;;;18.44;70.74
5952;BME280;3001;42.622;23.194;2023-04-30T10:34:37;91137.69;;;18.38;74.17
5952;BME280;3001;42.622;23.194;2023-04-30T10:37:10;91137.28;;;18.36;77.11
5952;BME280;3001;42.622;23.194;2023-04-30T10:39:40;91134.78;;;18.43;78.65
5952;BME280;3001;42.622;23.194;2023-04-30T10:42:09;91135.19;;;18.45;78.53
5952;BME280;3001;42.622;23.194;2023-04-30T10:44:36;91137.34;;;18.62;74.47
5952;BME280;3001;42.622;23.194;2023-04-30T10:47:04;91132.28;;;18.50;74.88
5952;BME280;3001;42.622;23.194;2023-04-30T10:49:33;91133.44;;;18.53;70.71
5952;BME280;3001;42.622;23.194;2023-04-30T10:52:01;91136.13;;;18.56;68.30
5952;BME280;3001;42.622;23.194;2023-04-30T10:54:30;91144.78;;;18.57;69.27
5952;BME280;3001;42.622;23.194;2023-04-30T10:57:08;91138.56;;;18.68;67.20
5952;BME280;3001;42.622;23.194;2023-04-30T10:59:36;91132.22;;;18.69;67.07
5952;BME280;3001;42.622;23.194;2023-04-30T11:02:04;91135.91;;;18.65;66.03
5952;BME280;3001;42.622;23.194;2023-04-30T11:04:30;91127.69;;;18.70;66.97
5952;BME280;3001;42.622;23.194;2023-04-30T11:07:07;91129.22;;;18.71;56.20
5952;BME280;3001;42.622;23.194;2023-04-30T11:09:39;91128.03;;;18.68;59.59
5952;BME280;3001;42.622;23.194;2023-04-30T11:12:11;91117.81;;;18.63;60.98
5952;BME280;3001;42.622;23.194;2023-04-30T11:14:43;91112.88;;;18.84;65.81
5952;BME280;3001;42.622;23.194;2023-04-30T11:17:11;91109.34;;;19.25;61.57
5952;BME280;3001;42.622;23.194;2023-04-30T11:19:48;91111.91;;;19.80;63.12
5952;BME280;3001;42.622;23.194;2023-04-30T11:22:18;91111.78;;;20.36;59.22
5952;BME280;3001;42.622;23.194;2023-04-30T11:24:52;91114.69;;;20.67;53.90
5952;BME280;3001;42.622;23.194;2023-04-30T11:27:20;91120.91;;;20.89;53.42
5952;BME280;3001;42.622;23.194;2023-04-30T11:29:48;91122.81;;;20.92;49.58
5952;BME280;3001;42.622;23.194;2023-04-30T11:32:15;91125.81;;;20.83;51.72
5952;BME280;3001;42.622;23.194;2023-04-30T11:34:43;91115.53;;;20.75;52.60
5952;BME280;3001;42.622;23.194;2023-04-30T11:37:11;91116.38;;;20.86;53.52
5952;BME280;3001;42.622;23.194;2023-04-30T11:39:40;91110.38;;;20.92;51.55
5952;BME280;3001;42.622;23.194;2023-04-30T11:42:07;91106.00;;;21.13;49.78
5952;BME280;3001;42.622;23.194;2023-04-30T11:44:34;91105.63;;;21.15;48.89
5952;BME280;3001;42.622;23.194;2023-04-30T11:47:03;91101.91;;;21.23;48.37
5952;BME280;3001;42.622;23.194;2023-04-30T11:49:30;91103.81;;;21.29;48.54
5952;BME280;3001;42.622;23.194;2023-04-30T11:51:57;91103.41;;;21.20;48.77
5952;BME280;3001;42.622;23.194;2023-04-30T11:54:24;91107.47;;;21.08;49.18
5952;BME280;3001;42.622;23.194;2023-04-30T11:56:52;91106.66;;;21.00;48.42
5952;BME280;3001;42.622;23.194;2023-04-30T11:59:25;91104.78;;;21.01;49.99
5952;BME280;3001;42.622;23.194;2023-04-30T12:01:52;91100.81;;;20.77;51.03
5952;BME280;3001;42.622;23.194;2023-04-30T12:04:19;91096.63;;;20.69;51.32
5952;BME280;3001;42.622;23.194;2023-04-30T12:06:46;91097.03;;;20.75;48.91
5952;BME280;3001;42.622;23.194;2023-04-30T12:09:13;91100.03;;;20.73;48.86
5952;BME280;3001;42.622;23.194;2023-04-30T12:11:39;91088.63;;;21.12;51.13
5952;BME280;3001;42.622;23.194;2023-04-30T12:14:09;91097.44;;;21.34;49.01
5952;BME280;3001;42.622;23.194;2023-04-30T12:16:41;91092.63;;;21.50;50.10
5952;BME280;3001;42.622;23.194;2023-04-30T12:19:09;91091.72;;;22.03;49.46
5952;BME280;3001;42.622;23.194;2023-04-30T12:21:37;91085.69;;;22.10;45.39
5952;BME280;3001;42.622;23.194;2023-04-30T12:24:04;91097.44;;;22.23;43.24
5952;BME280;3001;42.622;23.194;2023-04-30T12:26:35;91087.19;;;22.04;43.39
5952;BME280;3001;42.622;23.194;2023-04-30T12:29:03;91090.53;;;21.87;40.52
5952;BME280;3001;42.622;23.194;2023-04-30T12:31:32;91097.66;;;21.72;41.27
5952;BME280;3001;42.622;23.194;2023-04-30T12:34:02;91098.28;;;21.52;41.15
5952;BME280;3001;42.622;23.194;2023-04-30T12:36:30;91095.47;;;21.17;43.04
5952;BME280;3001;42.622;23.194;2023-04-30T12:39:02;91088.44;;;20.85;46.43
5952;BME280;3001;42.622;23.194;2023-04-30T12:41:29;91108.25;;;20.65;48.57
5952;BME280;3001;42.622;23.194;2023-04-30T12:44:17;91105.03;;;20.42;53.78
5952;BME280;3001;42.622;23.194;2023-04-30T12:46:46;91103.78;;;20.29;56.15
5952;BME280;3001;42.622;23.194;2023-04-30T12:49:21;91104.25;;;20.01;58.91
5952;BME280;3001;42.622;23.194;2023-04-30T12:51:49;91111.28;;;19.90;58.61
5952;BME280;3001;42.622;23.194;2023-04-30T12:54:24;91109.59;;;19.75;59.31
5952;BME280;3001;42.622;23.194;2023-04-30T12:57:02;91106.63;;;19.80;57.69
5952;BME280;3001;42.622;23.194;2023-04-30T12:59:29;91110.19;;;19.62;58.65
5952;BME280;3001;42.622;23.194;2023-04-30T13:02:06;91104.31;;;19.75;58.79
5952;BME280;3001;42.622;23.194;2023-04-30T13:04:33;91105.44;;;19.74;57.99
5952;BME280;3001;42.622;23.194;2023-04-30T13:07:00;91102.09;;;19.77;57.86
5952;BME280;3001;42.622;23.194;2023-04-30T13:09:27;91099.72;;;19.65;58.63
5952;BME280;3001;42.622;23.194;2023-04-30T13:11:54;91101.13;;;19.59;60.05
5952;BME280;3001;42.622;23.194;2023-04-30T13:14:20;91107.84;;;19.53;55.35